Terminal Aerodrome Forecast
Issued by NWS

Home | Current Version | Previous Version | Text Only | Print | Product List | Glossary On
Versions: 1 2 3 4 5 6 7 8 9 10 11 12 13 14 15 16
000
FTUS42 KTBW 311120
TAFLAL
TAF
KLAL 311120Z 3112/0112 15005KT P6SM VCSH SCT025 SCT100 BKN250
     FM311600 19007KT P6SM VCTS SCT020CB BKN050 BKN250
     FM010300 14004KT P6SM SCT035 BKN250=

USA.gov is the U.S. government's official web portal to all federal, state and local government web resources and services.